Time;durP1;ratioP1;P1;durP2;ratioP2;P2;SDS_P1;SDS_P2;PMS_P1;PMS_P2;Temp;Humidity;BMP_temperature;BMP_pressure;BME280_temperature;BME280_humidity;BME280_pressure;Samples;Min_cycle;Max_cycle;Signal;HPM_P1;HPM_P2
2022/07/08 00:02:22;;;;;;;4.10;3.80;;;;;;;16.17;70.81;101433.27;1631029;86;21622;-86
2022/07/08 00:04:49;;;;;;;3.75;3.37;;;;;;;16.10;70.90;101433.19;1645347;85;21094;-86
2022/07/08 00:07:16;;;;;;;4.78;3.87;;;;;;;16.03;71.03;101427.75;1646383;86;21078;-86
2022/07/08 00:09:43;;;;;;;5.65;3.75;;;;;;;15.97;71.19;101423.24;1646691;86;21078;-86
2022/07/08 00:12:10;;;;;;;4.12;3.72;;;;;;;15.93;71.27;101434.29;1652675;84;22548;-86
2022/07/08 00:14:37;;;;;;;4.42;4.03;;;;;;;15.89;71.42;101431.55;1650227;86;21066;-86
2022/07/08 00:17:04;;;;;;;4.62;3.77;;;;;;;15.83;71.50;101433.69;1648388;86;21149;-86
2022/07/08 00:19:31;;;;;;;4.65;3.83;;;;;;;15.79;71.60;101429.66;1649489;86;21102;-86
2022/07/08 00:21:58;;;;;;;3.72;3.42;;;;;;;15.73;71.73;101431.34;1649306;86;21467;-86
2022/07/08 00:24:25;;;;;;;5.10;3.83;;;;;;;15.70;71.90;101435.67;1652542;86;21804;-86
2022/07/08 00:26:52;;;;;;;4.50;4.10;;;;;;;15.67;71.97;101434.29;1646658;86;21086;-86
2022/07/08 00:29:19;;;;;;;5.83;4.90;;;;;;;15.64;72.06;101437.80;1646601;85;21094;-86
2022/07/08 00:31:45;;;;;;;5.87;4.28;;;;;;;15.60;72.21;101432.41;1646719;86;21070;-86
2022/07/08 00:34:12;;;;;;;6.17;4.05;;;;;;;15.58;72.27;101436.80;1646785;84;21178;-85
2022/07/08 00:36:39;;;;;;;4.60;4.20;;;;;;;15.55;72.38;101435.00;1646623;86;21739;-86
2022/07/08 00:39:06;;;;;;;4.40;4.00;;;;;;;15.50;72.47;101440.25;1645759;84;21154;-86
2022/07/08 00:41:33;;;;;;;6.25;4.40;;;;;;;15.47;72.57;101435.33;1670857;83;21082;-86
2022/07/08 00:44:01;;;;;;;5.30;4.67;;;;;;;15.44;72.69;101433.50;1611546;87;21431;-86
2022/07/08 00:46:30;;;;;;;6.28;4.28;;;;;;;15.40;72.79;101429.46;1614779;87;21111;-86
2022/07/08 00:48:59;;;;;;;5.22;4.78;;;;;;;15.38;72.86;101433.41;1616777;87;21744;-86
2022/07/08 00:51:25;;;;;;;5.05;4.60;;;;;;;15.34;73.01;101439.54;1633671;86;21103;-86
2022/07/08 00:53:53;;;;;;;5.40;4.80;;;;;;;15.30;73.13;101445.66;1616607;87;21122;-86
2022/07/08 00:56:21;;;;;;;4.92;4.53;;;;;;;15.27;73.25;101436.32;1616841;86;21233;-86
2022/07/08 00:58:49;;;;;;;4.40;4.00;;;;;;;15.25;73.34;101430.10;1616582;86;21147;-87
2022/07/08 01:01:16;;;;;;;5.70;4.95;;;;;;;15.24;73.42;101433.60;1616820;86;21766;-86
2022/07/08 01:03:47;;;;;;;5.85;4.75;;;;;;;15.22;73.59;101433.61;1624733;87;21078;-86
2022/07/08 01:06:14;;;;;;;5.40;4.90;;;;;;;15.23;73.66;101431.84;1627606;87;21087;-86
2022/07/08 01:08:41;;;;;;;5.08;4.47;;;;;;;15.20;73.81;101429.13;1633454;86;21039;-86
2022/07/08 01:11:08;;;;;;;8.20;5.28;;;;;;;15.21;73.92;101429.16;1616502;86;21696;-87
2022/07/08 01:13:35;;;;;;;7.25;5.10;;;;;;;15.21;73.99;101428.27;1623968;86;21780;-85
2022/07/08 01:16:03;;;;;;;7.05;5.37;;;;;;;15.22;74.10;101428.70;1616584;86;21597;-86
2022/07/08 01:18:31;;;;;;;5.67;5.17;;;;;;;15.24;74.22;101426.97;1632681;86;21126;-86
2022/07/08 01:20:58;;;;;;;6.12;5.35;;;;;;;15.27;74.31;101431.02;1616915;86;21100;-85
2022/07/08 01:23:25;;;;;;;6.33;4.85;;;;;;;15.30;74.43;101436.38;1616916;87;21734;-85
2022/07/08 01:25:52;;;;;;;6.05;5.55;;;;;;;15.33;74.48;101437.33;1616617;86;22398;-85
2022/07/08 01:28:20;;;;;;;6.08;5.45;;;;;;;15.37;74.52;101434.27;1599237;87;21089;-87
2022/07/08 01:30:48;;;;;;;5.80;5.28;;;;;;;15.41;74.58;101436.13;1632164;87;21146;-85
2022/07/08 01:33:15;;;;;;;6.10;5.42;;;;;;;15.46;74.56;101438.84;1661180;85;21094;-86
2022/07/08 01:35:41;;;;;;;6.80;5.55;;;;;;;15.47;74.51;101432.67;1631326;86;21644;-87
2022/07/08 01:38:08;;;;;;;6.33;5.58;;;;;;;15.49;74.59;101437.57;1686315;83;22734;-85
2022/07/08 01:40:35;;;;;;;6.35;5.75;;;;;;;15.51;74.61;101429.20;1685979;84;21840;-85
2022/07/08 01:43:02;;;;;;;8.75;5.85;;;;;;;15.57;74.60;101423.09;1683501;83;21597;-85
2022/07/08 01:45:36;;;;;;;6.40;5.80;;;;;;;15.58;74.50;101427.10;1685959;84;21082;-87
2022/07/08 01:48:03;;;;;;;8.57;6.17;;;;;;;15.58;74.52;101425.77;1685134;84;21098;-86
2022/07/08 01:50:31;;;;;;;6.55;5.33;;;;;;;15.61;74.58;101427.56;1688776;84;21756;-86
2022/07/08 01:52:58;;;;;;;7.15;5.45;;;;;;;15.61;74.52;101428.45;1685877;84;21118;-86
2022/07/08 01:55:25;;;;;;;5.55;5.00;;;;;;;15.61;74.53;101432.88;1651993;86;21129;-87
2022/07/08 01:57:52;;;;;;;6.72;5.40;;;;;;;15.61;74.60;101426.24;1688294;83;22274;-86
2022/07/08 02:00:19;;;;;;;6.78;5.30;;;;;;;15.64;74.66;101429.84;1634578;86;21135;-85
2022/07/08 02:02:46;;;;;;;6.20;5.60;;;;;;;15.69;74.76;101429.89;1627798;88;22441;-86
2022/07/08 02:05:14;;;;;;;6.78;5.78;;;;;;;15.72;74.76;101430.83;1687809;83;21057;-85
2022/07/08 02:07:42;;;;;;;8.85;5.53;;;;;;;15.78;74.81;101436.70;1675725;83;22170;-84
2022/07/08 02:10:10;;;;;;;6.33;5.28;;;;;;;15.82;74.80;101429.67;1675695;84;21110;-85
2022/07/08 02:12:37;;;;;;;5.87;5.30;;;;;;;15.89;74.83;101435.53;1675091;83;21605;-84
2022/07/08 02:15:06;;;;;;;6.80;5.30;;;;;;;15.92;74.83;101435.14;1674730;84;21726;-84
2022/07/08 02:17:42;;;;;;;7.12;5.25;;;;;;;15.97;74.78;101431.20;1679581;84;21081;-86
2022/07/08 02:20:11;;;;;;;7.42;5.65;;;;;;;16.00;74.79;101427.28;1654740;84;21125;-84
2022/07/08 02:22:38;;;;;;;12.10;6.67;;;;;;;16.05;74.76;101424.70;1675049;84;21132;-85
2022/07/08 02:25:06;;;;;;;6.95;5.03;;;;;;;16.08;74.75;101430.92;1675585;83;21089;-85
2022/07/08 02:27:33;;;;;;;5.35;4.83;;;;;;;16.11;74.74;101434.95;1675641;83;21821;-86
2022/07/08 02:30:00;;;;;;;7.35;5.97;;;;;;;16.15;74.75;101438.55;1677477;85;21644;-85
2022/07/08 02:32:26;;;;;;;8.90;5.40;;;;;;;16.17;74.74;101438.57;1650351;85;21732;-86
2022/07/08 02:34:54;;;;;;;5.45;4.78;;;;;;;16.21;74.81;101440.39;1675523;84;21769;-85
2022/07/08 02:37:20;;;;;;;5.67;5.10;;;;;;;16.27;74.93;101437.80;1679020;83;21049;-86
2022/07/08 02:39:47;;;;;;;7.35;4.95;;;;;;;16.35;74.92;101440.14;1685553;83;22477;-86
2022/07/08 02:42:14;;;;;;;6.58;5.22;;;;;;;16.42;74.84;101439.75;1677449;84;21556;-86
2022/07/08 02:44:41;;;;;;;4.85;4.35;;;;;;;16.47;74.78;101446.03;1677505;84;21663;-86
2022/07/08 02:47:08;;;;;;;8.23;4.92;;;;;;;16.50;74.72;101444.75;1690046;84;21440;-85
2022/07/08 02:49:38;;;;;;;6.42;4.72;;;;;;;16.56;74.71;101445.25;1681871;83;21085;-85
2022/07/08 02:52:07;;;;;;;5.50;5.03;;;;;;;16.59;74.64;101446.59;1688671;84;22578;-85
2022/07/08 02:54:33;;;;;;;6.08;4.92;;;;;;;16.64;74.63;101447.55;1682299;84;21136;-86
2022/07/08 02:57:00;;;;;;;5.62;4.45;;;;;;;16.68;74.56;101448.03;1681449;84;21086;-86
2022/07/08 02:59:27;;;;;;;5.47;4.50;;;;;;;16.71;74.55;101446.30;1680049;83;21106;-85
2022/07/08 03:01:54;;;;;;;4.75;4.30;;;;;;;16.78;74.54;101449.02;1679464;84;21078;-86
2022/07/08 03:04:21;;;;;;;4.50;4.10;;;;;;;16.82;74.48;101448.20;1688075;84;21788;-86
2022/07/08 03:06:48;;;;;;;5.47;3.90;;;;;;;16.87;74.45;101444.75;1684147;84;21614;-85
2022/07/08 03:09:15;;;;;;;5.58;4.00;;;;;;;16.93;74.39;101442.59;1679681;84;21046;-86
2022/07/08 03:11:42;;;;;;;5.95;4.28;;;;;;;16.98;74.36;101442.62;1678962;83;21078;-85
2022/07/08 03:14:09;;;;;;;3.72;3.30;;;;;;;17.01;74.24;101440.87;1659090;84;21085;-85
2022/07/08 03:16:36;;;;;;;9.80;4.33;;;;;;;17.04;74.25;101447.58;1681938;84;21741;-86
2022/07/08 03:19:02;;;;;;;6.03;3.90;;;;;;;17.09;74.26;101440.95;1680325;84;21114;-85
2022/07/08 03:21:29;;;;;;;10.43;4.05;;;;;;;17.13;74.25;101443.20;1675848;84;21715;-85
2022/07/08 03:23:56;;;;;;;9.30;4.17;;;;;;;17.18;74.19;101449.02;1692577;84;22314;-85
2022/07/08 03:26:22;;;;;;;4.53;3.92;;;;;;;17.22;74.14;101452.59;1675613;84;21102;-85
2022/07/08 03:28:51;;;;;;;4.55;3.62;;;;;;;17.26;74.10;101453.07;1670094;84;21079;-85
2022/07/08 03:31:18;;;;;;;6.12;3.58;;;;;;;17.29;74.04;101451.33;1681131;83;21117;-85
2022/07/08 03:33:45;;;;;;;4.85;3.50;;;;;;;17.30;74.04;101449.55;1687032;84;21630;-85
2022/07/08 03:36:12;;;;;;;8.33;3.95;;;;;;;17.38;74.01;101461.59;1691256;84;21153;-85
2022/07/08 03:38:38;;;;;;;4.05;3.60;;;;;;;17.43;73.97;101463.86;1682605;84;21071;-85
2022/07/08 03:41:20;;;;;;;4.65;3.40;;;;;;;17.48;73.90;101464.34;1689909;84;21746;-85
2022/07/08 03:43:49;;;;;;;5.53;3.72;;;;;;;17.53;73.83;101459.48;1637912;86;21170;-85
2022/07/08 03:46:15;;;;;;;7.22;3.90;;;;;;;17.59;73.79;101471.54;1635444;85;21886;-84
2022/07/08 03:48:42;;;;;;;6.20;3.35;;;;;;;17.64;73.73;101465.38;1635943;86;21161;-85
2022/07/08 03:51:09;;;;;;;5.95;3.35;;;;;;;17.69;73.63;101464.06;1634316;86;21062;-86
2022/07/08 03:53:36;;;;;;;6.50;3.42;;;;;;;17.74;73.59;101466.32;1620359;87;21767;-86
2022/07/08 03:56:05;;;;;;;4.00;3.27;;;;;;;17.79;73.51;101466.34;1634460;86;21063;-86
2022/07/08 03:58:34;;;;;;;4.87;3.20;;;;;;;17.82;73.43;101460.59;1636028;85;21126;-85
2022/07/08 04:01:01;;;;;;;5.80;3.75;;;;;;;17.88;73.48;101454.45;1632188;86;21126;-85
2022/07/08 04:03:28;;;;;;;5.17;3.33;;;;;;;17.99;73.31;101469.17;1625029;87;21636;-85
2022/07/08 04:05:54;;;;;;;3.90;3.33;;;;;;;18.04;73.27;101466.98;1617165;88;21751;-85
2022/07/08 04:08:21;;;;;;;5.97;3.52;;;;;;;18.12;73.17;101470.14;1632124;87;21071;-84
2022/07/08 04:10:48;;;;;;;6.67;3.72;;;;;;;18.19;73.06;101473.29;1629666;87;21094;-85
2022/07/08 04:13:15;;;;;;;9.70;3.50;;;;;;;18.26;72.95;101475.08;1607773;87;21152;-84
2022/07/08 04:15:42;;;;;;;5.12;3.40;;;;;;;18.34;72.83;101477.77;1635477;85;21536;-85
2022/07/08 04:18:09;;;;;;;3.85;3.05;;;;;;;18.42;72.78;101476.05;1637401;85;21244;-86
2022/07/08 04:20:35;;;;;;;6.03;3.30;;;;;;;18.52;72.68;101479.64;1637155;86;21129;-88
2022/07/08 04:23:02;;;;;;;4.35;3.33;;;;;;;18.60;72.51;101478.80;1637626;86;21116;-87
2022/07/08 04:25:29;;;;;;;6.72;3.62;;;;;;;18.67;72.36;101487.69;1637857;86;21100;-87
2022/07/08 04:27:59;;;;;;;5.00;3.08;;;;;;;18.74;72.27;101484.61;1640984;86;21094;-86
2022/07/08 04:30:26;;;;;;;5.08;3.45;;;;;;;18.79;72.06;101487.73;1634145;87;21802;-86
2022/07/08 04:32:53;;;;;;;4.65;3.08;;;;;;;18.83;71.89;101491.34;1641757;86;21078;-86
2022/07/08 04:35:20;;;;;;;7.30;3.52;;;;;;;18.89;71.83;101494.47;1640578;86;21629;-88
2022/07/08 04:37:50;;;;;;;3.98;3.47;;;;;;;18.96;71.76;101496.27;1620017;87;21080;-87
2022/07/08 04:40:17;;;;;;;4.17;3.62;;;;;;;19.04;71.70;101496.71;1639420;86;21114;-88
2022/07/08 04:42:44;;;;;;;4.62;3.85;;;;;;;19.11;71.47;101490.08;1666638;84;22538;-87
2022/07/08 04:45:12;;;;;;;4.55;3.62;;;;;;;19.25;71.52;101490.08;1693601;83;21115;-88
2022/07/08 04:47:38;;;;;;;4.72;3.50;;;;;;;19.36;71.25;101486.98;1688222;83;21798;-88
2022/07/08 04:50:14;;;;;;;4.67;3.58;;;;;;;19.43;71.08;101484.30;1695117;84;21066;-90
2022/07/08 04:52:44;;;;;;;8.48;3.95;;;;;;;19.54;71.04;101489.66;1638204;85;21150;-87
2022/07/08 04:55:29;;;;;;;7.28;3.83;;;;;;;19.67;70.80;101489.20;1683259;84;21742;-90
2022/07/08 04:57:58;;;;;;;10.88;4.03;;;;;;;19.76;70.66;101490.99;1692957;84;21655;-89
2022/07/08 05:00:25;;;;;;;10.60;4.55;;;;;;;19.84;70.38;101491.89;1690866;84;21536;-92
2022/07/08 05:02:51;;;;;;;4.78;3.80;;;;;;;19.93;70.38;101489.62;1659933;84;21527;-86
2022/07/08 05:05:31;;;;;;;8.05;3.80;;;;;;;19.98;69.96;101484.72;1667504;84;21670;-89
2022/07/08 05:08:08;;;;;;;6.70;4.20;;;;;;;19.97;69.85;101489.64;1691136;84;21880;-88
2022/07/08 05:10:35;;;;;;;7.00;3.98;;;;;;;20.04;69.84;101499.84;1685297;84;21104;-90
2022/07/08 05:13:02;;;;;;;5.03;3.72;;;;;;;20.07;69.63;101498.52;1693089;84;21066;-89
2022/07/08 05:15:28;;;;;;;5.75;4.03;;;;;;;20.09;69.50;101499.86;1689109;84;21110;-89
2022/07/08 05:17:55;;;;;;;8.83;3.87;;;;;;;20.12;69.37;101493.14;1689773;84;21081;-87
2022/07/08 05:20:29;;;;;;;7.70;3.87;;;;;;;20.18;69.24;101499.38;1634515;86;23173;-88
2022/07/08 05:22:56;;;;;;;5.80;4.12;;;;;;;20.20;69.09;101504.73;1646917;86;21595;-89
2022/07/08 05:25:30;;;;;;;3.85;3.55;;;;;;;20.20;68.98;101499.38;1648785;87;21054;-93
2022/07/08 05:27:57;;;;;;;6.58;3.72;;;;;;;20.16;68.89;101496.28;1642220;85;21630;-87
2022/07/08 05:30:26;;;;;;;6.60;3.80;;;;;;;20.25;68.83;101505.58;1646411;86;21094;-89
2022/07/08 05:32:55;;;;;;;8.05;3.65;;;;;;;20.27;68.66;101505.16;1635137;87;23898;-88
2022/07/08 05:35:22;;;;;;;5.35;3.22;;;;;;;20.30;68.66;101505.13;1642998;86;21110;-87
2022/07/08 05:37:52;;;;;;;11.60;4.12;;;;;;;20.34;68.52;101509.56;1636820;86;21220;-89
2022/07/08 05:40:22;;;;;;;8.68;4.25;;;;;;;20.38;68.50;101506.02;1647899;86;21098;-87
2022/07/08 05:42:49;;;;;;;13.80;4.40;;;;;;;20.42;68.40;101504.22;1647359;86;21082;-86
2022/07/08 05:45:16;;;;;;;20.75;4.80;;;;;;;20.45;68.37;101504.64;1634426;86;22646;-85
2022/07/08 05:47:43;;;;;;;8.03;3.92;;;;;;;20.49;68.25;101507.28;1650673;85;21148;-87
2022/07/08 05:50:11;;;;;;;5.78;3.50;;;;;;;20.53;68.11;101506.41;1661338;84;21066;-90
2022/07/08 05:52:38;;;;;;;9.85;4.00;;;;;;;20.55;67.91;101507.70;1679934;85;21059;-85
2022/07/08 05:55:05;;;;;;;4.70;3.27;;;;;;;20.57;67.87;101511.27;1692426;84;21093;-87
2022/07/08 05:57:32;;;;;;;12.58;3.62;;;;;;;20.60;67.75;101515.30;1684556;84;21756;-89
2022/07/08 05:59:59;;;;;;;7.03;3.30;;;;;;;20.63;67.75;101513.05;1684717;83;21087;-88
2022/07/08 06:02:26;;;;;;;4.45;3.25;;;;;;;20.70;67.71;101513.47;1677368;84;21907;-87
2022/07/08 06:04:53;;;;;;;6.37;2.85;;;;;;;20.72;67.46;101509.91;1679314;84;21078;-87
2022/07/08 06:07:20;;;;;;;6.97;2.75;;;;;;;20.74;67.38;101509.88;1674237;83;21607;-87
2022/07/08 06:09:47;;;;;;;4.97;3.47;;;;;;;20.77;67.32;101506.74;1677080;84;21825;-86
2022/07/08 06:12:13;;;;;;;5.17;3.42;;;;;;;20.81;67.23;101504.06;1664509;84;21509;-87
2022/07/08 06:14:40;;;;;;;4.55;2.80;;;;;;;20.80;67.08;101510.30;1674362;84;21102;-87
2022/07/08 06:17:07;;;;;;;3.98;2.87;;;;;;;20.77;66.94;101506.74;1683103;83;21786;-87
2022/07/08 06:19:34;;;;;;;4.30;2.90;;;;;;;20.74;66.96;101513.47;1681583;83;21372;-88
2022/07/08 06:22:01;;;;;;;4.37;2.37;;;;;;;20.73;66.92;101517.03;1677680;85;22553;-86
2022/07/08 06:24:28;;;;;;;3.37;2.60;;;;;;;20.70;66.93;101524.17;1674638;85;21078;-88
2022/07/08 06:26:55;;;;;;;4.92;2.83;;;;;;;20.72;67.00;101517.94;1683566;84;21545;-88
2022/07/08 06:29:22;;;;;;;3.45;2.52;;;;;;;20.80;66.96;101521.00;1652105;86;21478;-87
2022/07/08 06:31:49;;;;;;;6.33;3.12;;;;;;;20.94;67.13;101522.70;1629272;87;22097;-87
2022/07/08 06:34:16;;;;;;;5.33;2.42;;;;;;;21.15;66.93;101517.70;1682817;83;21777;-87
2022/07/08 06:36:43;;;;;;;8.40;2.45;;;;;;;21.59;66.73;101522.77;1671900;84;21054;-88
2022/07/08 06:39:10;;;;;;;9.08;2.50;;;;;;;21.59;66.73;101522.77;1679987;85;21098;-87
2022/07/08 06:41:37;;;;;;;4.33;2.20;;;;;;;21.96;66.38;101525.09;1682092;84;21078;-87
2022/07/08 06:44:04;;;;;;;3.60;2.02;;;;;;;22.41;66.25;101517.48;1674733;84;21074;-86
2022/07/08 06:46:32;;;;;;;2.40;1.77;;;;;;;22.93;65.69;101518.63;1667766;84;22624;-87
2022/07/08 06:48:59;;;;;;;5.42;1.80;;;;;;;23.46;65.19;101518.28;1689017;83;21066;-87
2022/07/08 06:51:26;;;;;;;2.10;1.65;;;;;;;23.93;64.02;101520.66;1683148;84;21094;-87
2022/07/08 06:56:39;;;;;;;3.40;1.60;;;;;;;24.49;62.16;101524.48;1673630;84;21098;-87
2022/07/08 06:59:06;;;;;;;0.82;0.80;;;;;;;24.57;60.76;101525.27;1676197;83;21695;-87
2022/07/08 07:01:43;;;;;;;1.37;0.90;;;;;;;24.62;60.31;101517.08;1688318;84;21078;-87
2022/07/08 07:04:11;;;;;;;2.17;1.00;;;;;;;24.66;59.20;101518.78;1658142;84;21098;-88
2022/07/08 07:06:38;;;;;;;1.10;0.78;;;;;;;24.68;58.97;101524.14;1690144;84;21268;-88
2022/07/08 07:09:05;;;;;;;1.35;1.20;;;;;;;24.73;58.58;101518.20;1679106;84;21176;-87
2022/07/08 07:11:32;;;;;;;3.95;2.05;;;;;;;24.69;57.88;101524.58;1675337;84;21779;-87
2022/07/08 07:13:59;;;;;;;4.22;3.70;;;;;;;24.56;57.53;101523.48;1674249;84;21080;-88
2022/07/08 07:16:25;;;;;;;3.10;2.10;;;;;;;24.47;57.04;101531.71;1674655;84;21100;-88
2022/07/08 07:18:52;;;;;;;2.55;0.90;;;;;;;24.38;56.67;101530.55;1675370;83;21073;-87
2022/07/08 07:21:19;;;;;;;1.30;0.70;;;;;;;24.37;56.89;101528.80;1677423;83;21065;-88
2022/07/08 07:23:45;;;;;;;2.72;1.12;;;;;;;24.45;56.79;101543.84;1686216;84;21705;-88
2022/07/08 07:26:12;;;;;;;8.35;2.00;;;;;;;24.49;56.49;101538.41;1675686;83;21056;-87
2022/07/08 07:28:39;;;;;;;6.22;2.62;;;;;;;24.33;55.94;101544.11;1675890;84;21081;-87
2022/07/08 07:31:21;;;;;;;1.98;1.77;;;;;;;24.05;55.88;101549.13;1677773;83;21128;-88
2022/07/08 07:33:51;;;;;;;1.90;0.75;;;;;;;23.91;56.25;101550.70;1683279;83;21101;-88
2022/07/08 07:36:17;;;;;;;2.12;0.70;;;;;;;23.80;56.15;101554.95;1686435;83;22556;-87
2022/07/08 07:38:44;;;;;;;1.22;1.12;;;;;;;23.75;56.44;101553.22;1685574;84;21473;-88
2022/07/08 07:41:11;;;;;;;3.00;1.02;;;;;;;23.80;56.54;101567.47;1686801;84;21135;-88
2022/07/08 07:43:38;;;;;;;0.98;0.90;;;;;;;23.80;56.27;101567.47;1679772;83;21155;-88
2022/07/08 07:46:04;;;;;;;2.72;0.80;;;;;;;23.73;56.37;101561.77;1681856;83;21074;-87
2022/07/08 07:48:32;;;;;;;1.10;0.90;;;;;;;23.68;56.30;101564.52;1667716;83;41631;-87
2022/07/08 07:50:59;;;;;;;1.45;0.80;;;;;;;23.48;56.26;101564.39;1681887;85;21070;-87
2022/07/08 07:53:27;;;;;;;0.98;0.88;;;;;;;23.47;56.77;101568.44;1676563;83;21650;-88
2022/07/08 07:55:54;;;;;;;1.40;0.62;;;;;;;23.56;56.99;101568.76;1665416;83;21105;-88
2022/07/08 07:58:20;;;;;;;0.75;0.57;;;;;;;23.56;56.90;101575.48;1671340;83;21062;-87
2022/07/08 08:00:47;;;;;;;0.42;0.40;;;;;;;23.41;56.80;101576.13;1682519;83;21746;-87
2022/07/08 08:03:14;;;;;;;1.10;0.80;;;;;;;23.27;56.74;101576.78;1679451;84;21505;-88
2022/07/08 08:05:47;;;;;;;1.62;1.52;;;;;;;23.07;56.98;101572.59;1675072;85;21078;-87
2022/07/08 08:08:14;;;;;;;1.70;1.42;;;;;;;22.89;57.26;101583.08;1682609;84;21203;-87
2022/07/08 08:10:40;;;;;;;2.15;1.50;;;;;;;22.79;57.44;101586.80;1667031;84;21092;-87
2022/07/08 08:13:07;;;;;;;0.80;0.70;;;;;;;22.53;57.49;101584.89;1674191;85;21748;-87
2022/07/08 08:15:34;;;;;;;2.58;1.75;;;;;;;22.15;58.14;101592.39;1667194;83;21140;-87
2022/07/08 08:18:01;;;;;;;2.52;1.40;;;;;;;21.91;58.59;101593.05;1673507;83;21558;-87
2022/07/08 08:20:31;;;;;;;2.30;1.25;;;;;;;21.67;59.29;101594.59;1669720;85;21066;-87
2022/07/08 08:22:58;;;;;;;1.72;0.95;;;;;;;21.59;60.03;101596.45;1665552;85;21074;-87
2022/07/08 08:25:25;;;;;;;1.80;0.90;;;;;;;21.50;60.35;101597.38;1665292;85;22057;-88
2022/07/08 08:27:56;;;;;;;1.60;1.32;;;;;;;21.35;60.50;101599.22;1681689;84;21126;-87
2022/07/08 08:30:21;;;;;;;4.65;0.90;;;;;;;21.27;61.08;101596.16;1681928;83;21527;-87
2022/07/08 08:32:48;;;;;;;1.52;1.20;;;;;;;21.22;61.48;101598.85;1670986;85;21062;-87
2022/07/08 08:35:15;;;;;;;2.70;0.90;;;;;;;21.07;61.53;101599.81;1673277;84;21088;-87
2022/07/08 08:37:42;;;;;;;5.22;1.25;;;;;;;21.01;61.85;101601.66;1668949;83;22589;-87
2022/07/08 08:40:10;;;;;;;2.00;0.80;;;;;;;20.98;62.28;101611.91;1681932;83;21920;-87
2022/07/08 08:42:38;;;;;;;1.92;1.12;;;;;;;20.93;62.50;101599.89;1669224;85;21129;-87
2022/07/08 08:45:06;;;;;;;3.70;1.60;;;;;;;20.91;62.77;101584.30;1673637;84;21052;-86
2022/07/08 08:47:34;;;;;;;1.52;0.80;;;;;;;21.08;62.86;101605.63;1675283;83;21663;-87
2022/07/08 08:52:52;;;;;;;2.65;1.17;;;;;;;21.20;63.00;101611.82;1675732;83;21081;-87
2022/07/08 08:55:30;;;;;;;2.08;1.87;;;;;;;21.32;63.00;101607.72;1677625;83;21061;-87
2022/07/08 08:57:59;;;;;;;1.92;1.40;;;;;;;21.50;63.09;101607.64;1686067;84;21671;-88
2022/07/08 09:00:27;;;;;;;4.00;1.75;;;;;;;21.75;63.03;101615.50;1677183;85;21606;-87
2022/07/08 09:02:54;;;;;;;1.50;1.40;;;;;;;21.98;62.76;101601.02;1677416;84;21783;-86
2022/07/08 09:05:21;;;;;;;2.20;2.00;;;;;;;22.05;62.48;101608.11;1667930;83;21053;-87
2022/07/08 09:07:48;;;;;;;3.15;2.20;;;;;;;21.97;62.20;101605.96;1677750;83;21100;-87
2022/07/08 09:10:15;;;;;;;4.90;3.35;;;;;;;21.79;62.18;101615.03;1686263;83;21242;-88
2022/07/08 09:13:06;;;;;;;4.37;2.52;;;;;;;21.46;61.93;101623.30;1677207;84;21085;-87
2022/07/08 09:15:44;;;;;;;3.08;1.82;;;;;;;21.04;62.67;101639.09;1678422;84;21726;-88
2022/07/08 09:18:14;;;;;;;4.28;2.27;;;;;;;20.28;63.56;101641.93;1689733;83;21093;-87
2022/07/08 09:20:52;;;;;;;1.07;0.93;;;;;;;19.69;64.32;101633.41;1678018;83;21026;-87
2022/07/08 09:23:21;;;;;;;3.33;1.12;;;;;;;19.47;65.45;101624.04;1663139;84;21145;-86
2022/07/08 09:25:52;;;;;;;4.08;1.82;;;;;;;19.50;66.25;101627.15;1674770;83;21080;-87
2022/07/08 09:28:35;;;;;;;1.80;1.40;;;;;;;19.94;67.13;101631.25;1676849;84;21837;-87
2022/07/08 09:31:07;;;;;;;3.33;1.57;;;;;;;19.94;67.13;101631.25;1675934;84;21108;-86
2022/07/08 09:33:35;;;;;;;1.65;1.27;;;;;;;20.20;66.85;101635.71;1675567;83;21704;-86
2022/07/08 09:36:03;;;;;;;3.92;1.82;;;;;;;20.49;66.63;101635.66;1687906;83;21169;-86
2022/07/08 09:38:35;;;;;;;2.52;1.50;;;;;;;21.14;65.17;101634.16;1686492;83;21070;-87
2022/07/08 09:41:02;;;;;;;2.70;0.88;;;;;;;21.14;65.17;101634.16;1674807;83;21838;-87
2022/07/08 09:43:29;;;;;;;1.62;1.12;;;;;;;21.45;64.81;101632.67;1683139;84;21084;-86
2022/07/08 09:46:07;;;;;;;1.35;0.90;;;;;;;21.76;64.17;101634.71;1678380;83;22041;-87
2022/07/08 09:48:34;;;;;;;1.92;1.50;;;;;;;21.98;63.44;101630.52;1689563;84;21601;-87
2022/07/08 09:51:07;;;;;;;2.17;0.90;;;;;;;22.32;62.55;101640.08;1677151;83;21086;-87
2022/07/08 09:53:31;;;;;;;1.02;0.93;;;;;;;22.58;62.48;101638.02;1679199;84;21832;-87
2022/07/08 09:55:58;;;;;;;0.82;0.82;;;;;;;22.87;61.66;101641.73;1679566;83;21050;-87
2022/07/08 09:58:27;;;;;;;3.33;2.58;;;;;;;23.01;60.52;101638.87;1692710;83;21117;-86
2022/07/08 10:00:55;;;;;;;4.53;3.55;;;;;;;22.98;59.98;101640.27;1691771;83;21094;-86
2022/07/08 10:03:23;;;;;;;3.00;2.17;;;;;;;22.94;59.76;101640.76;1680130;84;21093;-88
2022/07/08 10:05:50;;;;;;;1.85;0.80;;;;;;;22.85;59.28;101637.72;1687422;83;22565;-87
2022/07/08 10:08:17;;;;;;;8.48;2.02;;;;;;;22.73;58.88;101650.39;1685797;84;21066;-86
2022/07/08 10:10:51;;;;;;;2.72;1.57;;;;;;;22.69;59.25;101650.87;1707196;83;21137;-87
2022/07/08 10:13:20;;;;;;;1.77;0.88;;;;;;;22.86;59.12;101642.20;1697565;83;21622;-87
2022/07/08 10:15:52;;;;;;;2.00;1.62;;;;;;;22.97;58.31;101650.09;1688521;83;21098;-87
2022/07/08 10:18:27;;;;;;;6.37;5.08;;;;;;;22.92;58.23;101650.63;1686007;83;21811;-87
2022/07/08 10:20:55;;;;;;;3.25;2.95;;;;;;;23.07;58.31;101649.59;1676049;83;21789;-87
2022/07/08 10:23:30;;;;;;;4.15;2.95;;;;;;;23.20;57.74;101643.15;1675247;83;21164;-87
2022/07/08 10:25:58;;;;;;;3.00;1.75;;;;;;;23.53;57.31;101638.20;1676707;83;21078;-87
2022/07/08 10:28:38;;;;;;;1.60;1.50;;;;;;;23.88;56.65;101646.22;1656598;85;21602;-87
2022/07/08 10:31:23;;;;;;;0.78;0.60;;;;;;;23.95;56.17;101642.53;1684453;84;21767;-87
2022/07/08 10:33:54;;;;;;;1.05;0.85;;;;;;;24.13;56.04;101647.16;1698189;83;21293;-88
2022/07/08 10:36:21;;;;;;;2.72;0.93;;;;;;;24.22;55.30;101640.27;1674152;83;21098;-87
2022/07/08 10:38:48;;;;;;;1.62;0.82;;;;;;;24.27;54.62;101649.16;1668322;84;21113;-87
2022/07/08 10:41:26;;;;;;;2.85;0.80;;;;;;;24.16;53.79;101649.80;1679817;84;21141;-87
2022/07/08 10:43:55;;;;;;;2.95;0.80;;;;;;;24.01;53.19;101651.83;1634043;83;21783;-86
2022/07/08 10:46:26;;;;;;;2.15;1.00;;;;;;;23.94;53.51;101643.89;1676006;83;21112;-86
2022/07/08 10:48:55;;;;;;;1.60;0.53;;;;;;;23.99;53.88;101655.00;1648889;84;21144;-86
2022/07/08 10:51:30;;;;;;;1.57;0.60;;;;;;;24.05;53.41;101644.60;1675429;84;21080;-86
2022/07/08 10:54:01;;;;;;;2.10;0.90;;;;;;;24.11;53.40;101647.17;1683162;84;21062;-86
2022/07/08 10:57:01;;;;;;;1.90;0.50;;;;;;;24.29;52.99;101645.07;1677272;83;21807;-86
2022/07/08 10:59:33;;;;;;;4.17;0.85;;;;;;;24.30;52.69;101648.20;1684674;84;21062;-86
2022/07/08 11:02:07;;;;;;;2.77;0.65;;;;;;;24.37;52.65;101647.19;1688744;83;21598;-86
2022/07/08 11:04:42;;;;;;;1.17;0.62;;;;;;;24.42;52.14;101648.00;1686342;84;21109;-86
2022/07/08 11:07:25;;;;;;;1.47;0.70;;;;;;;24.36;50.93;101648.09;1682720;83;21166;-86
2022/07/08 11:10:09;;;;;;;0.98;0.50;;;;;;;24.29;51.33;101650.45;1664821;85;21754;-86
2022/07/08 11:12:45;;;;;;;3.37;0.53;;;;;;;24.42;51.01;101652.03;1667600;83;21072;-86
2022/07/08 11:15:17;;;;;;;1.62;0.40;;;;;;;24.43;50.60;101650.64;1679608;84;21100;-87
2022/07/08 11:17:46;;;;;;;2.90;0.80;;;;;;;24.44;50.50;101659.63;1684711;84;21089;-86
2022/07/08 11:20:15;;;;;;;2.65;2.10;;;;;;;24.35;50.00;101659.31;1675913;83;21068;-86
2022/07/08 11:22:43;;;;;;;2.45;1.35;;;;;;;24.35;50.16;101660.66;1631374;86;21778;-86
2022/07/08 11:25:16;;;;;;;2.20;1.30;;;;;;;24.31;49.70;101665.67;1685183;83;21094;-86
2022/07/08 11:27:43;;;;;;;2.62;0.88;;;;;;;24.16;49.46;101668.64;1679549;84;21157;-86
2022/07/08 11:30:13;;;;;;;4.08;1.10;;;;;;;24.02;49.37;101665.69;1681460;84;21065;-86
2022/07/08 11:32:40;;;;;;;3.33;1.30;;;;;;;24.05;49.28;101675.06;1678683;83;21046;-86
2022/07/08 11:35:08;;;;;;;2.65;0.78;;;;;;;23.97;48.68;101676.09;1684601;83;21681;-86
2022/07/08 11:37:42;;;;;;;3.45;0.40;;;;;;;23.96;48.12;101682.40;1678052;83;21041;-85